sensor_id;sensor_type;location;lat;lon;timestamp;temperature;humidity
74155;DHT22;62509;46.248;6.018;2023-08-24T00:02:28;24.80;54.60
74155;DHT22;62509;46.248;6.018;2023-08-24T00:07:31;24.50;55.40
74155;DHT22;62509;46.248;6.018;2023-08-24T00:12:34;23.80;58.40
74155;DHT22;62509;46.248;6.018;2023-08-24T00:17:39;23.70;59.30
74155;DHT22;62509;46.248;6.018;2023-08-24T00:22:42;23.50;60.20
74155;DHT22;62509;46.248;6.018;2023-08-24T00:27:46;23.40;61.00
74155;DHT22;62509;46.248;6.018;2023-08-24T00:32:51;23.40;60.90
74155;DHT22;62509;46.248;6.018;2023-08-24T00:37:55;23.30;61.20
74155;DHT22;62509;46.248;6.018;2023-08-24T00:42:58;23.30;60.90
74155;DHT22;62509;46.248;6.018;2023-08-24T00:48:03;23.50;60.10
74155;DHT22;62509;46.248;6.018;2023-08-24T00:53:07;23.50;60.10
74155;DHT22;62509;46.248;6.018;2023-08-24T00:58:11;23.40;60.50
74155;DHT22;62509;46.248;6.018;2023-08-24T01:03:16;23.10;61.70
74155;DHT22;62509;46.248;6.018;2023-08-24T01:08:19;22.80;62.90
74155;DHT22;62509;46.248;6.018;2023-08-24T01:13:26;22.70;63.20
74155;DHT22;62509;46.248;6.018;2023-08-24T01:18:34;22.70;63.10
74155;DHT22;62509;46.248;6.018;2023-08-24T01:23:41;22.90;62.70
74155;DHT22;62509;46.248;6.018;2023-08-24T01:28:49;23.00;62.00
74155;DHT22;62509;46.248;6.018;2023-08-24T01:33:53;22.90;62.30
74155;DHT22;62509;46.248;6.018;2023-08-24T01:38:58;22.90;62.10
74155;DHT22;62509;46.248;6.018;2023-08-24T01:44:09;23.00;61.60
74155;DHT22;62509;46.248;6.018;2023-08-24T01:49:17;22.50;63.40
74155;DHT22;62509;46.248;6.018;2023-08-24T01:54:20;22.30;64.60
74155;DHT22;62509;46.248;6.018;2023-08-24T01:59:25;22.30;64.10
74155;DHT22;62509;46.248;6.018;2023-08-24T02:04:28;22.30;64.30
74155;DHT22;62509;46.248;6.018;2023-08-24T02:09:32;22.20;64.50
74155;DHT22;62509;46.248;6.018;2023-08-24T02:14:36;22.40;63.70
74155;DHT22;62509;46.248;6.018;2023-08-24T02:19:39;22.00;65.80
74155;DHT22;62509;46.248;6.018;2023-08-24T02:24:43;22.00;65.70
74155;DHT22;62509;46.248;6.018;2023-08-24T02:29:48;22.20;65.00
74155;DHT22;62509;46.248;6.018;2023-08-24T02:34:52;22.30;63.90
74155;DHT22;62509;46.248;6.018;2023-08-24T02:39:56;22.40;63.60
74155;DHT22;62509;46.248;6.018;2023-08-24T02:45:00;22.60;63.20
74155;DHT22;62509;46.248;6.018;2023-08-24T02:50:04;22.70;62.50
74155;DHT22;62509;46.248;6.018;2023-08-24T02:55:09;22.40;63.80
74155;DHT22;62509;46.248;6.018;2023-08-24T03:00:14;22.50;63.00
74155;DHT22;62509;46.248;6.018;2023-08-24T03:05:17;22.30;63.90
74155;DHT22;62509;46.248;6.018;2023-08-24T03:10:20;22.40;63.30
74155;DHT22;62509;46.248;6.018;2023-08-24T03:15:25;22.40;63.00
74155;DHT22;62509;46.248;6.018;2023-08-24T03:20:28;22.30;63.90
74155;DHT22;62509;46.248;6.018;2023-08-24T03:30:44;22.20;64.10
74155;DHT22;62509;46.248;6.018;2023-08-24T03:35:48;22.00;64.90
74155;DHT22;62509;46.248;6.018;2023-08-24T03:40:52;21.90;65.70
74155;DHT22;62509;46.248;6.018;2023-08-24T03:46:04;21.80;66.30
74155;DHT22;62509;46.248;6.018;2023-08-24T03:51:08;21.90;65.60
74155;DHT22;62509;46.248;6.018;2023-08-24T03:56:11;21.60;67.30
74155;DHT22;62509;46.248;6.018;2023-08-24T04:01:16;21.50;67.90
74155;DHT22;62509;46.248;6.018;2023-08-24T04:06:20;21.50;67.90
74155;DHT22;62509;46.248;6.018;2023-08-24T04:11:23;21.80;66.30
74155;DHT22;62509;46.248;6.018;2023-08-24T04:16:28;21.70;67.00
74155;DHT22;62509;46.248;6.018;2023-08-24T04:21:31;21.50;67.30
74155;DHT22;62509;46.248;6.018;2023-08-24T04:26:34;21.20;69.40
74155;DHT22;62509;46.248;6.018;2023-08-24T04:31:39;21.20;70.00
74155;DHT22;62509;46.248;6.018;2023-08-24T04:36:43;21.40;68.80
74155;DHT22;62509;46.248;6.018;2023-08-24T04:41:47;21.40;68.30
74155;DHT22;62509;46.248;6.018;2023-08-24T04:46:52;21.30;68.80
74155;DHT22;62509;46.248;6.018;2023-08-24T04:51:55;21.20;69.20
74155;DHT22;62509;46.248;6.018;2023-08-24T04:56:58;21.10;70.60
74155;DHT22;62509;46.248;6.018;2023-08-24T05:02:03;21.10;70.70
74155;DHT22;62509;46.248;6.018;2023-08-24T05:07:06;21.00;70.60
74155;DHT22;62509;46.248;6.018;2023-08-24T05:12:09;21.10;70.70
74155;DHT22;62509;46.248;6.018;2023-08-24T05:17:14;21.40;68.70
74155;DHT22;62509;46.248;6.018;2023-08-24T05:22:17;21.90;66.30
74155;DHT22;62509;46.248;6.018;2023-08-24T05:27:21;22.30;64.30
74155;DHT22;62509;46.248;6.018;2023-08-24T05:32:26;22.50;63.70
74155;DHT22;62509;46.248;6.018;2023-08-24T05:37:29;22.70;63.10
74155;DHT22;62509;46.248;6.018;2023-08-24T05:42:32;23.30;60.70
74155;DHT22;62509;46.248;6.018;2023-08-24T05:47:39;24.00;57.60
74155;DHT22;62509;46.248;6.018;2023-08-24T05:52:43;24.30;56.60
74155;DHT22;62509;46.248;6.018;2023-08-24T05:57:46;24.30;55.80
74155;DHT22;62509;46.248;6.018;2023-08-24T06:02:51;24.40;55.10
74155;DHT22;62509;46.248;6.018;2023-08-24T06:07:55;24.80;54.30
74155;DHT22;62509;46.248;6.018;2023-08-24T06:12:58;25.00;53.80
74155;DHT22;62509;46.248;6.018;2023-08-24T06:18:04;24.80;54.90
74155;DHT22;62509;46.248;6.018;2023-08-24T06:23:08;24.80;55.50
74155;DHT22;62509;46.248;6.018;2023-08-24T06:28:11;25.30;53.60
74155;DHT22;62509;46.248;6.018;2023-08-24T06:33:17;25.30;53.70
74155;DHT22;62509;46.248;6.018;2023-08-24T06:38:21;25.70;52.60
74155;DHT22;62509;46.248;6.018;2023-08-24T06:43:24;26.10;51.70
74155;DHT22;62509;46.248;6.018;2023-08-24T06:48:29;26.10;51.70
74155;DHT22;62509;46.248;6.018;2023-08-24T06:53:32;26.50;50.20
74155;DHT22;62509;46.248;6.018;2023-08-24T06:58:36;26.90;49.20
74155;DHT22;62509;46.248;6.018;2023-08-24T07:03:40;27.60;45.40
74155;DHT22;62509;46.248;6.018;2023-08-24T07:08:43;27.50;44.50
74155;DHT22;62509;46.248;6.018;2023-08-24T07:13:47;27.10;45.40
74155;DHT22;62509;46.248;6.018;2023-08-24T07:18:53;27.50;44.10
74155;DHT22;62509;46.248;6.018;2023-08-24T07:23:56;27.80;43.00
74155;DHT22;62509;46.248;6.018;2023-08-24T07:29:00;28.00;42.10
74155;DHT22;62509;46.248;6.018;2023-08-24T07:34:05;28.00;43.00
74155;DHT22;62509;46.248;6.018;2023-08-24T07:39:08;28.40;42.20
74155;DHT22;62509;46.248;6.018;2023-08-24T07:44:14;28.60;41.90
74155;DHT22;62509;46.248;6.018;2023-08-24T07:49:18;28.80;41.30
74155;DHT22;62509;46.248;6.018;2023-08-24T07:54:22;28.60;41.40
74155;DHT22;62509;46.248;6.018;2023-08-24T07:59:26;28.90;40.30
74155;DHT22;62509;46.248;6.018;2023-08-24T08:04:31;29.00;36.10
74155;DHT22;62509;46.248;6.018;2023-08-24T08:09:35;29.00;39.70
74155;DHT22;62509;46.248;6.018;2023-08-24T08:14:39;29.20;38.80
74155;DHT22;62509;46.248;6.018;2023-08-24T08:19:43;29.20;36.30
74155;DHT22;62509;46.248;6.018;2023-08-24T08:24:46;29.30;37.90
74155;DHT22;62509;46.248;6.018;2023-08-24T08:29:51;29.10;38.60
74155;DHT22;62509;46.248;6.018;2023-08-24T08:34:56;29.20;38.80
74155;DHT22;62509;46.248;6.018;2023-08-24T08:40:02;29.20;38.80
74155;DHT22;62509;46.248;6.018;2023-08-24T08:45:08;29.70;38.00
74155;DHT22;62509;46.248;6.018;2023-08-24T08:50:13;29.70;36.70
74155;DHT22;62509;46.248;6.018;2023-08-24T08:55:17;30.00;36.80
74155;DHT22;62509;46.248;6.018;2023-08-24T09:00:21;30.40;35.40
74155;DHT22;62509;46.248;6.018;2023-08-24T09:05:25;30.50;34.80
74155;DHT22;62509;46.248;6.018;2023-08-24T09:10:29;30.70;34.30
74155;DHT22;62509;46.248;6.018;2023-08-24T09:15:34;30.90;33.80
74155;DHT22;62509;46.248;6.018;2023-08-24T09:20:40;30.90;33.80
74155;DHT22;62509;46.248;6.018;2023-08-24T09:25:44;30.80;33.90
74155;DHT22;62509;46.248;6.018;2023-08-24T09:30:49;30.80;33.40
74155;DHT22;62509;46.248;6.018;2023-08-24T09:35:57;31.30;32.30
74155;DHT22;62509;46.248;6.018;2023-08-24T09:41:05;31.40;31.60
74155;DHT22;62509;46.248;6.018;2023-08-24T09:46:09;31.40;32.10
74155;DHT22;62509;46.248;6.018;2023-08-24T09:51:13;31.70;31.30
74155;DHT22;62509;46.248;6.018;2023-08-24T09:56:17;32.10;30.80
74155;DHT22;62509;46.248;6.018;2023-08-24T10:01:21;32.10;31.00
74155;DHT22;62509;46.248;6.018;2023-08-24T10:06:27;32.40;30.00
74155;DHT22;62509;46.248;6.018;2023-08-24T10:11:31;32.50;28.90
74155;DHT22;62509;46.248;6.018;2023-08-24T10:16:39;32.70;29.00
74155;DHT22;62509;46.248;6.018;2023-08-24T10:21:45;32.80;28.50
74155;DHT22;62509;46.248;6.018;2023-08-24T10:26:49;33.00;28.30
74155;DHT22;62509;46.248;6.018;2023-08-24T10:31:53;33.00;28.20
74155;DHT22;62509;46.248;6.018;2023-08-24T10:36:59;33.30;27.70
74155;DHT22;62509;46.248;6.018;2023-08-24T10:42:10;33.50;27.60
74155;DHT22;62509;46.248;6.018;2023-08-24T10:47:14;33.80;26.70
74155;DHT22;62509;46.248;6.018;2023-08-24T10:52:20;33.90;26.30
74155;DHT22;62509;46.248;6.018;2023-08-24T10:57:25;34.00;25.70
74155;DHT22;62509;46.248;6.018;2023-08-24T11:02:30;34.30;25.10
74155;DHT22;62509;46.248;6.018;2023-08-24T11:07:34;34.50;24.70
74155;DHT22;62509;46.248;6.018;2023-08-24T11:18:19;34.90;24.10
74155;DHT22;62509;46.248;6.018;2023-08-24T11:23:26;35.20;23.30
74155;DHT22;62509;46.248;6.018;2023-08-24T11:28:30;35.40;22.90
74155;DHT22;62509;46.248;6.018;2023-08-24T11:33:34;35.40;22.80
74155;DHT22;62509;46.248;6.018;2023-08-24T11:38:39;35.70;22.20
74155;DHT22;62509;46.248;6.018;2023-08-24T11:43:44;35.80;21.50
74155;DHT22;62509;46.248;6.018;2023-08-24T11:48:48;35.80;21.60
74155;DHT22;62509;46.248;6.018;2023-08-24T11:53:53;35.90;21.00
74155;DHT22;62509;46.248;6.018;2023-08-24T11:58:59;35.90;20.70
74155;DHT22;62509;46.248;6.018;2023-08-24T12:04:03;36.30;20.40
74155;DHT22;62509;46.248;6.018;2023-08-24T12:09:08;36.40;20.30
74155;DHT22;62509;46.248;6.018;2023-08-24T12:14:16;36.50;20.50
74155;DHT22;62509;46.248;6.018;2023-08-24T12:19:21;36.50;20.10
74155;DHT22;62509;46.248;6.018;2023-08-24T12:24:26;36.70;20.00
74155;DHT22;62509;46.248;6.018;2023-08-24T12:29:30;36.80;19.50
74155;DHT22;62509;46.248;6.018;2023-08-24T12:34:33;36.90;19.70
74155;DHT22;62509;46.248;6.018;2023-08-24T12:39:38;37.00;19.90
74155;DHT22;62509;46.248;6.018;2023-08-24T12:44:41;37.10;19.80
74155;DHT22;62509;46.248;6.018;2023-08-24T12:49:46;37.20;20.00
74155;DHT22;62509;46.248;6.018;2023-08-24T12:54:51;37.10;20.00
74155;DHT22;62509;46.248;6.018;2023-08-24T12:59:54;36.90;20.10
74155;DHT22;62509;46.248;6.018;2023-08-24T13:04:58;37.00;20.40
74155;DHT22;62509;46.248;6.018;2023-08-24T13:10:06;37.00;20.30
74155;DHT22;62509;46.248;6.018;2023-08-24T13:15:10;37.30;20.30
74155;DHT22;62509;46.248;6.018;2023-08-24T13:20:15;37.30;20.00
74155;DHT22;62509;46.248;6.018;2023-08-24T13:25:20;37.40;19.90
74155;DHT22;62509;46.248;6.018;2023-08-24T13:30:23;37.60;19.00
74155;DHT22;62509;46.248;6.018;2023-08-24T13:35:27;37.60;19.70
74155;DHT22;62509;46.248;6.018;2023-08-24T13:40:31;37.70;19.50
74155;DHT22;62509;46.248;6.018;2023-08-24T13:45:35;37.70;18.50
74155;DHT22;62509;46.248;6.018;2023-08-24T13:50:38;37.70;17.80
74155;DHT22;62509;46.248;6.018;2023-08-24T13:55:45;37.60;17.60
74155;DHT22;62509;46.248;6.018;2023-08-24T14:00:54;37.80;17.00
74155;DHT22;62509;46.248;6.018;2023-08-24T14:05:57;37.90;16.60
74155;DHT22;62509;46.248;6.018;2023-08-24T14:11:02;38.00;16.00
74155;DHT22;62509;46.248;6.018;2023-08-24T14:16:05;38.20;15.20
74155;DHT22;62509;46.248;6.018;2023-08-24T14:21:09;38.30;15.60
74155;DHT22;62509;46.248;6.018;2023-08-24T14:26:17;37.90;15.10
74155;DHT22;62509;46.248;6.018;2023-08-24T14:31:20;37.70;14.70
74155;DHT22;62509;46.248;6.018;2023-08-24T14:36:24;37.60;15.00
74155;DHT22;62509;46.248;6.018;2023-08-24T14:41:29;37.80;14.80
74155;DHT22;62509;46.248;6.018;2023-08-24T14:46:34;37.50;14.50
74155;DHT22;62509;46.248;6.018;2023-08-24T14:51:37;37.50;14.60
74155;DHT22;62509;46.248;6.018;2023-08-24T14:56:42;37.30;14.40
74155;DHT22;62509;46.248;6.018;2023-08-24T15:01:45;37.10;14.50
74155;DHT22;62509;46.248;6.018;2023-08-24T15:06:48;36.90;14.60
74155;DHT22;62509;46.248;6.018;2023-08-24T15:11:53;36.70;14.80
74155;DHT22;62509;46.248;6.018;2023-08-24T15:16:56;36.40;14.80
74155;DHT22;62509;46.248;6.018;2023-08-24T15:21:59;36.20;15.20
74155;DHT22;62509;46.248;6.018;2023-08-24T15:27:04;36.00;15.40
74155;DHT22;62509;46.248;6.018;2023-08-24T15:32:08;35.80;15.70
74155;DHT22;62509;46.248;6.018;2023-08-24T15:37:15;35.50;15.90
74155;DHT22;62509;46.248;6.018;2023-08-24T15:42:19;35.40;15.90
74155;DHT22;62509;46.248;6.018;2023-08-24T15:47:23;35.30;15.90
74155;DHT22;62509;46.248;6.018;2023-08-24T15:52:26;35.20;16.30
74155;DHT22;62509;46.248;6.018;2023-08-24T15:57:31;35.00;16.10
74155;DHT22;62509;46.248;6.018;2023-08-24T16:02:34;34.90;16.50
74155;DHT22;62509;46.248;6.018;2023-08-24T16:07:38;34.70;16.80
74155;DHT22;62509;46.248;6.018;2023-08-24T16:12:43;34.50;17.20
74155;DHT22;62509;46.248;6.018;2023-08-24T16:17:46;34.40;17.60
74155;DHT22;62509;46.248;6.018;2023-08-24T16:22:49;34.30;18.00
74155;DHT22;62509;46.248;6.018;2023-08-24T16:27:54;34.20;18.10
74155;DHT22;62509;46.248;6.018;2023-08-24T16:32:57;34.20;18.20
74155;DHT22;62509;46.248;6.018;2023-08-24T16:38:01;34.00;18.10
74155;DHT22;62509;46.248;6.018;2023-08-24T16:43:06;34.00;17.90
74155;DHT22;62509;46.248;6.018;2023-08-24T16:48:10;33.90;18.20
74155;DHT22;62509;46.248;6.018;2023-08-24T16:53:14;33.80;18.20
74155;DHT22;62509;46.248;6.018;2023-08-24T16:58:18;33.80;18.30
74155;DHT22;62509;46.248;6.018;2023-08-24T17:03:22;33.70;18.50
74155;DHT22;62509;46.248;6.018;2023-08-24T17:08:25;33.70;18.50
74155;DHT22;62509;46.248;6.018;2023-08-24T17:13:29;33.60;18.50
74155;DHT22;62509;46.248;6.018;2023-08-24T17:18:33;33.50;18.60
74155;DHT22;62509;46.248;6.018;2023-08-24T17:23:37;33.50;18.70
74155;DHT22;62509;46.248;6.018;2023-08-24T17:28:42;33.40;20.30
74155;DHT22;62509;46.248;6.018;2023-08-24T17:33:45;33.50;20.00
74155;DHT22;62509;46.248;6.018;2023-08-24T17:38:48;33.70;19.20
74155;DHT22;62509;46.248;6.018;2023-08-24T17:44:09;33.90;19.10
74155;DHT22;62509;46.248;6.018;2023-08-24T17:49:12;33.90;19.50
74155;DHT22;62509;46.248;6.018;2023-08-24T17:54:16;33.70;19.70
74155;DHT22;62509;46.248;6.018;2023-08-24T17:59:20;33.50;19.70
74155;DHT22;62509;46.248;6.018;2023-08-24T18:04:23;33.30;20.10
74155;DHT22;62509;46.248;6.018;2023-08-24T18:09:27;33.10;20.30
74155;DHT22;62509;46.248;6.018;2023-08-24T18:14:32;32.90;20.50
74155;DHT22;62509;46.248;6.018;2023-08-24T18:19:35;32.60;21.40
74155;DHT22;62509;46.248;6.018;2023-08-24T18:24:42;32.30;22.20
74155;DHT22;62509;46.248;6.018;2023-08-24T18:29:47;32.00;22.50
74155;DHT22;62509;46.248;6.018;2023-08-24T18:34:50;31.80;23.00
74155;DHT22;62509;46.248;6.018;2023-08-24T18:39:54;31.40;24.10
74155;DHT22;62509;46.248;6.018;2023-08-24T18:44:59;31.20;24.20
74155;DHT22;62509;46.248;6.018;2023-08-24T18:50:02;31.10;24.80
74155;DHT22;62509;46.248;6.018;2023-08-24T18:55:06;30.90;24.30
74155;DHT22;62509;46.248;6.018;2023-08-24T19:00:11;30.90;24.10
74155;DHT22;62509;46.248;6.018;2023-08-24T19:05:15;30.90;23.80
74155;DHT22;62509;46.248;6.018;2023-08-24T19:10:19;30.90;24.10
74155;DHT22;62509;46.248;6.018;2023-08-24T19:15:27;30.60;24.60
74155;DHT22;62509;46.248;6.018;2023-08-24T19:20:33;30.40;24.70
74155;DHT22;62509;46.248;6.018;2023-08-24T19:25:36;30.40;25.70
74155;DHT22;62509;46.248;6.018;2023-08-24T19:30:40;30.30;26.10
74155;DHT22;62509;46.248;6.018;2023-08-24T19:35:44;30.10;26.50
74155;DHT22;62509;46.248;6.018;2023-08-24T19:40:48;30.00;27.40
74155;DHT22;62509;46.248;6.018;2023-08-24T19:45:52;29.80;27.30
74155;DHT22;62509;46.248;6.018;2023-08-24T19:50:56;29.80;27.30
74155;DHT22;62509;46.248;6.018;2023-08-24T19:55:59;29.80;26.70
74155;DHT22;62509;46.248;6.018;2023-08-24T20:01:04;30.00;25.90
74155;DHT22;62509;46.248;6.018;2023-08-24T20:06:17;30.10;25.50
74155;DHT22;62509;46.248;6.018;2023-08-24T20:11:22;30.10;25.50
74155;DHT22;62509;46.248;6.018;2023-08-24T20:16:33;30.10;25.60
74155;DHT22;62509;46.248;6.018;2023-08-24T20:21:36;30.00;25.20
74155;DHT22;62509;46.248;6.018;2023-08-24T20:26:39;30.10;25.00
74155;DHT22;62509;46.248;6.018;2023-08-24T20:31:44;30.20;25.10
74155;DHT22;62509;46.248;6.018;2023-08-24T20:36:47;30.30;25.20
74155;DHT22;62509;46.248;6.018;2023-08-24T20:41:50;30.30;25.50
74155;DHT22;62509;46.248;6.018;2023-08-24T20:46:56;30.30;25.50
74155;DHT22;62509;46.248;6.018;2023-08-24T20:51:59;30.40;25.50
74155;DHT22;62509;46.248;6.018;2023-08-24T20:57:02;30.40;25.40
74155;DHT22;62509;46.248;6.018;2023-08-24T21:02:08;30.30;25.60
74155;DHT22;62509;46.248;6.018;2023-08-24T21:07:11;30.30;25.50
74155;DHT22;62509;46.248;6.018;2023-08-24T21:12:15;30.20;25.30
74155;DHT22;62509;46.248;6.018;2023-08-24T21:17:19;30.20;25.40
74155;DHT22;62509;46.248;6.018;2023-08-24T21:22:24;30.10;25.60
74155;DHT22;62509;46.248;6.018;2023-08-24T21:27:27;30.20;25.30
74155;DHT22;62509;46.248;6.018;2023-08-24T21:32:32;30.40;24.60
74155;DHT22;62509;46.248;6.018;2023-08-24T21:37:36;30.40;24.60
74155;DHT22;62509;46.248;6.018;2023-08-24T21:42:39;30.30;24.70
74155;DHT22;62509;46.248;6.018;2023-08-24T21:47:44;30.50;24.20
74155;DHT22;62509;46.248;6.018;2023-08-24T21:52:47;30.30;24.60
74155;DHT22;62509;46.248;6.018;2023-08-24T21:57:50;30.10;24.70
74155;DHT22;62509;46.248;6.018;2023-08-24T22:02:57;30.20;24.30
74155;DHT22;62509;46.248;6.018;2023-08-24T22:08:01;30.20;24.20
74155;DHT22;62509;46.248;6.018;2023-08-24T22:13:06;30.00;24.70
74155;DHT22;62509;46.248;6.018;2023-08-24T22:18:11;29.80;24.90
74155;DHT22;62509;46.248;6.018;2023-08-24T22:23:14;29.90;24.90
74155;DHT22;62509;46.248;6.018;2023-08-24T22:28:18;29.80;24.80
74155;DHT22;62509;46.248;6.018;2023-08-24T22:33:22;29.80;24.80
74155;DHT22;62509;46.248;6.018;2023-08-24T22:38:26;29.90;24.50
74155;DHT22;62509;46.248;6.018;2023-08-24T22:43:29;29.90;24.10
74155;DHT22;62509;46.248;6.018;2023-08-24T22:48:34;29.90;23.90
74155;DHT22;62509;46.248;6.018;2023-08-24T22:53:37;29.90;23.40
74155;DHT22;62509;46.248;6.018;2023-08-24T22:58:41;30.00;23.00
74155;DHT22;62509;46.248;6.018;2023-08-24T23:03:46;29.90;23.00
74155;DHT22;62509;46.248;6.018;2023-08-24T23:08:49;29.00;27.20
74155;DHT22;62509;46.248;6.018;2023-08-24T23:13:52;28.60;28.70
74155;DHT22;62509;46.248;6.018;2023-08-24T23:18:57;28.60;29.00
74155;DHT22;62509;46.248;6.018;2023-08-24T23:24:00;28.40;29.30
74155;DHT22;62509;46.248;6.018;2023-08-24T23:29:24;28.20;29.40
74155;DHT22;62509;46.248;6.018;2023-08-24T23:34:29;27.80;30.30
74155;DHT22;62509;46.248;6.018;2023-08-24T23:39:32;27.80;30.40
74155;DHT22;62509;46.248;6.018;2023-08-24T23:44:35;27.60;30.70
74155;DHT22;62509;46.248;6.018;2023-08-24T23:49:40;27.50;30.30
74155;DHT22;62509;46.248;6.018;2023-08-24T23:54:43;27.30;32.10
74155;DHT22;62509;46.248;6.018;2023-08-24T23:59:47;27.00;33.30
